Aviation Digital Data Service (ADDS)

Output produced by METARs form (1405 UTC 10 July 2020)
found at http://www.aviationweather.gov/metar/data/
 
KCSV 101353Z AUTO 00000KT 10SM CLR 26/21 A3002 RMK AO2 SLP142 T02560206
KCSV 101125Z 1012/1112 00000KT P6SM VCSH FEW030 
     FM101300 28007KT P6SM SCT050 
     FM101700 28009G14KT P6SM VCTS BKN050CB 
     FM110100 31006KT P6SM SCT250